createdAt,value
2023-03-24T00:00:11.176Z,99281.97
2023-03-24T00:02:41.968Z,99290.78
2023-03-24T00:05:11.300Z,99285.41
2023-03-24T00:07:39.714Z,99279.22
2023-03-24T00:10:09.752Z,99273.00
2023-03-24T00:12:38.890Z,99271.22
2023-03-24T00:15:08.390Z,99257.94
2023-03-24T00:17:36.688Z,99265.00
2023-03-24T00:20:16.931Z,99264.06
2023-03-24T00:22:49.589Z,99251.66
2023-03-24T00:25:23.747Z,99253.41
2023-03-24T00:27:51.544Z,99248.94
2023-03-24T00:30:19.359Z,99252.47
2023-03-24T00:32:46.523Z,99247.97
2023-03-24T00:35:16.322Z,99249.72
2023-03-24T00:37:44.643Z,99242.59
2023-03-24T00:40:14.667Z,99240.81
2023-03-24T00:42:41.554Z,99235.50
2023-03-24T00:45:09.445Z,99231.94
2023-03-24T00:47:38.033Z,99227.50
2023-03-24T00:50:07.592Z,99226.63
2023-03-24T00:52:34.335Z,99225.69
2023-03-24T00:55:04.006Z,99227.47
2023-03-24T00:57:35.060Z,99230.03
2023-03-24T01:00:12.603Z,99228.25
2023-03-24T01:02:39.166Z,99221.13
2023-03-24T01:05:06.685Z,99219.34
2023-03-24T01:07:33.599Z,99213.13
2023-03-24T01:10:00.372Z,99208.72
2023-03-24T01:12:32.843Z,99204.28
2023-03-24T01:15:00.947Z,99203.44
2023-03-24T01:17:27.619Z,99191.03
2023-03-24T01:19:54.494Z,99187.53
2023-03-24T01:22:21.722Z,99188.47
2023-03-24T01:24:49.137Z,99181.38
2023-03-24T01:27:16.275Z,99173.41
2023-03-24T01:29:42.900Z,99177.88
2023-03-24T01:32:09.652Z,99177.06
2023-03-24T01:34:36.250Z,99168.22
2023-03-24T01:37:02.955Z,99168.22
2023-03-24T01:39:30.040Z,99167.34
2023-03-24T01:41:56.960Z,99156.72
2023-03-24T01:44:31.170Z,99151.41
2023-03-24T01:46:58.223Z,99147.03
2023-03-24T01:49:29.667Z,99149.66
2023-03-24T01:52:00.701Z,99138.16
2023-03-24T01:54:33.659Z,99139.03
2023-03-24T01:57:10.275Z,99131.03
2023-03-24T01:59:41.733Z,99118.69
2023-03-24T02:02:27.348Z,99121.34
2023-03-24T02:05:03.718Z,99107.25
2023-03-24T02:08:01.677Z,99101.94
2023-03-24T02:10:33.191Z,99110.75
2023-03-24T02:12:59.919Z,99092.19
2023-03-24T02:15:29.957Z,99093.09
2023-03-24T02:18:19.037Z,99082.44
2023-03-24T02:21:04.362Z,99078.03
2023-03-24T02:23:42.645Z,99084.19
2023-03-24T02:26:37.367Z,99068.25
2023-03-24T02:29:27.836Z,99068.25
2023-03-24T02:32:25.107Z,99069.09
2023-03-24T02:35:12.685Z,99064.66
2023-03-24T02:37:49.250Z,99053.16
2023-03-24T02:40:32.303Z,99059.34
2023-03-24T02:43:26.901Z,99069.06
2023-03-24T02:46:13.738Z,99054.03
2023-03-24T02:49:24.529Z,99048.72
2023-03-24T02:52:01.665Z,99052.22
2023-03-24T02:54:53.380Z,99038.97
2023-03-24T02:57:28.796Z,99035.44
2023-03-24T03:00:32.419Z,99033.63
2023-03-24T03:03:28.772Z,99028.31
2023-03-24T03:06:06.973Z,99025.66
2023-03-24T03:08:34.703Z,99013.22
2023-03-24T03:11:05.952Z,99010.56
2023-03-24T03:13:38.985Z,99003.53
2023-03-24T03:16:10.203Z,99008.81
2023-03-24T03:18:43.343Z,99007.06
2023-03-24T03:21:15.401Z,99009.75
2023-03-24T03:23:47.824Z,99007.09
2023-03-24T03:26:18.018Z,99009.72
2023-03-24T03:28:50.758Z,99002.59
2023-03-24T03:31:29.718Z,98996.38
2023-03-24T03:34:09.741Z,98984.00
2023-03-24T03:36:47.478Z,98981.34
2023-03-24T03:39:22.334Z,98977.75
2023-03-24T03:41:48.975Z,98975.94
2023-03-24T03:44:16.014Z,98975.91
2023-03-24T03:46:43.013Z,98971.50
2023-03-24T03:49:14.857Z,98965.25
2023-03-24T03:51:41.405Z,98966.06
2023-03-24T03:54:12.591Z,98957.19
2023-03-24T03:56:39.836Z,98969.56
2023-03-24T03:59:35.417Z,98962.41
2023-03-24T04:02:28.419Z,98964.16
2023-03-24T04:05:14.113Z,98965.00
2023-03-24T04:08:18.686Z,98962.34
2023-03-24T04:11:29.045Z,98960.56
2023-03-24T04:14:14.209Z,98958.81
2023-03-24T04:16:52.080Z,98958.88
2023-03-24T04:19:45.691Z,98947.44
2023-03-24T04:22:46.024Z,98944.03
2023-03-24T04:25:56.702Z,98933.53
2023-03-24T04:28:32.275Z,98933.63
2023-03-24T04:31:34.967Z,98930.97
2023-03-24T04:34:15.677Z,98927.50
2023-03-24T04:36:50.471Z,98923.00
2023-03-24T04:39:28.964Z,98921.28
2023-03-24T04:42:01.748Z,98915.97
2023-03-24T04:44:33.072Z,98907.94
2023-03-24T04:47:22.874Z,98907.88
2023-03-24T04:50:07.801Z,98890.16
2023-03-24T04:52:34.340Z,98888.31
2023-03-24T04:55:05.230Z,98887.38
2023-03-24T04:57:31.704Z,98875.78
2023-03-24T05:00:08.197Z,98869.53
2023-03-24T05:02:34.962Z,98858.00
2023-03-24T05:05:09.902Z,98874.75
2023-03-24T05:07:42.460Z,98865.88
2023-03-24T05:10:11.826Z,98850.75
2023-03-24T05:12:43.984Z,98857.75
2023-03-24T05:15:16.687Z,98854.09
2023-03-24T05:17:43.926Z,98861.13
2023-03-24T05:20:11.412Z,98848.66
2023-03-24T05:22:40.940Z,98858.31
2023-03-24T05:25:08.160Z,98853.78
2023-03-24T05:27:34.763Z,98859.06
2023-03-24T05:30:13.281Z,98857.19
2023-03-24T05:32:40.888Z,98844.75
2023-03-24T05:35:08.278Z,98845.53
2023-03-24T05:37:34.913Z,98842.78
2023-03-24T05:40:02.692Z,98853.31
2023-03-24T05:42:42.939Z,98842.63
2023-03-24T05:45:11.795Z,98833.75
2023-03-24T05:47:38.824Z,98831.00
2023-03-24T05:50:06.337Z,98825.63
2023-03-24T05:52:34.218Z,98831.78
2023-03-24T05:55:16.878Z,98813.09
2023-03-24T05:57:43.533Z,98826.38
2023-03-24T06:00:31.697Z,98830.69
2023-03-24T06:03:06.383Z,98822.69
2023-03-24T06:05:48.097Z,98813.72
2023-03-24T06:08:16.886Z,98813.72
2023-03-24T06:10:43.497Z,98813.66
2023-03-24T06:13:10.004Z,98818.88
2023-03-24T06:15:42.868Z,98820.59
2023-03-24T06:18:30.516Z,98820.41
2023-03-24T06:21:00.310Z,98822.03
2023-03-24T06:23:29.872Z,98827.19
2023-03-24T06:26:11.548Z,98828.84
2023-03-24T06:28:57.307Z,98824.38
2023-03-24T06:31:27.725Z,98822.09
2023-03-24T06:33:54.487Z,98829.06
2023-03-24T06:36:23.474Z,98841.91
2023-03-24T06:38:51.218Z,98822.59
2023-03-24T06:41:20.613Z,98836.63
2023-03-24T06:43:51.108Z,98829.78
2023-03-24T06:46:17.949Z,98833.97
2023-03-24T06:48:46.983Z,98847.50
2023-03-24T06:51:13.529Z,98831.00
2023-03-24T06:53:41.347Z,98834.00
2023-03-24T06:56:08.217Z,98841.31
2023-03-24T06:58:41.143Z,98833.50
2023-03-24T07:01:11.431Z,98827.59
2023-03-24T07:03:44.612Z,98837.56
2023-03-24T07:06:35.979Z,98838.66
2023-03-24T07:09:12.384Z,98838.00
2023-03-24T07:11:39.341Z,98851.53
2023-03-24T07:14:05.922Z,98856.06
2023-03-24T07:16:34.124Z,98865.00
2023-03-24T07:19:23.705Z,98857.97
2023-03-24T07:22:02.089Z,98857.00
2023-03-24T07:24:45.277Z,98864.41
2023-03-24T07:27:39.418Z,98876.25
2023-03-24T07:30:09.158Z,98874.56
2023-03-24T07:32:44.135Z,98881.00
2023-03-24T07:35:12.904Z,98890.03
2023-03-24T07:37:39.961Z,98883.16
2023-03-24T07:40:12.070Z,98909.81
2023-03-24T07:42:39.944Z,98904.69
2023-03-24T07:45:17.511Z,98909.16
2023-03-24T07:47:46.066Z,98920.75
2023-03-24T07:50:14.567Z,98924.41
2023-03-24T07:52:43.676Z,98937.78
2023-03-24T07:55:12.068Z,98947.63
2023-03-24T07:58:04.974Z,98951.25
2023-03-24T08:00:32.894Z,98969.88
2023-03-24T08:03:27.831Z,98955.69
2023-03-24T08:06:08.301Z,98962.44
2023-03-24T08:08:44.712Z,98970.63
2023-03-24T08:11:11.306Z,98979.59
2023-03-24T08:13:37.754Z,98966.09
2023-03-24T08:16:04.701Z,98974.94
2023-03-24T08:18:35.028Z,98980.84
2023-03-24T08:21:02.183Z,98994.31
2023-03-24T08:23:28.916Z,99001.53
2023-03-24T08:25:55.534Z,98995.63
2023-03-24T08:28:22.240Z,98987.81
2023-03-24T08:30:49.092Z,99011.06
2023-03-24T08:33:16.341Z,99005.00
2023-03-24T08:35:42.930Z,98997.97
2023-03-24T08:38:11.621Z,99014.03
2023-03-24T08:40:40.318Z,99024.75
2023-03-24T08:43:08.922Z,99028.47
2023-03-24T08:45:35.781Z,99032.19
2023-03-24T08:48:05.602Z,99029.63
2023-03-24T08:50:38.754Z,99016.97
2023-03-24T08:53:05.723Z,99034.47
2023-03-24T08:55:32.534Z,99019.31
2023-03-24T08:57:59.057Z,99034.16
2023-03-24T09:00:25.750Z,99022.41
2023-03-24T09:02:55.620Z,99024.78
2023-03-24T09:05:37.174Z,99035.22
2023-03-24T09:08:11.508Z,99047.25
2023-03-24T09:10:39.355Z,99045.16
2023-03-24T09:13:06.109Z,99050.03
2023-03-24T09:15:33.337Z,99055.69
2023-03-24T09:18:00.175Z,99047.34
2023-03-24T09:20:27.259Z,99047.78
2023-03-24T09:22:53.801Z,99062.59
2023-03-24T09:25:20.955Z,99069.72
2023-03-24T09:27:48.113Z,99058.13
2023-03-24T09:30:16.906Z,99055.22
2023-03-24T09:32:44.757Z,99064.84
2023-03-24T09:35:12.055Z,99051.41
2023-03-24T09:37:39.072Z,99054.03
2023-03-24T09:40:07.827Z,99054.59
2023-03-24T09:42:38.605Z,99065.81
2023-03-24T09:45:13.036Z,99062.25
2023-03-24T09:47:42.741Z,99066.69
2023-03-24T09:50:22.832Z,99069.41
2023-03-24T09:52:54.334Z,99074.22
2023-03-24T09:55:29.078Z,99075.00
2023-03-24T09:58:05.018Z,99071.41
2023-03-24T10:00:32.915Z,99096.84
2023-03-24T10:03:11.560Z,99091.25
2023-03-24T10:05:44.143Z,99097.69
2023-03-24T10:08:36.318Z,99094.44
2023-03-24T10:11:31.869Z,99097.28
2023-03-24T10:14:13.923Z,99099.25
2023-03-24T10:16:50.876Z,99104.31
2023-03-24T10:19:28.468Z,99106.19
2023-03-24T10:22:10.511Z,99103.53
2023-03-24T10:24:53.726Z,99102.75
2023-03-24T10:27:33.221Z,99108.06
2023-03-24T10:30:29.994Z,99132.03
2023-03-24T10:32:56.793Z,99113.75
2023-03-24T10:35:32.022Z,99112.81
2023-03-24T10:38:00.989Z,99109.38
2023-03-24T10:40:33.650Z,99119.28
2023-03-24T10:43:06.752Z,99117.25
2023-03-24T10:45:39.411Z,99129.81
2023-03-24T10:48:07.358Z,99118.28
2023-03-24T10:50:36.135Z,99133.28
2023-03-24T10:53:15.627Z,99128.25
2023-03-24T10:55:44.024Z,99138.75
2023-03-24T10:58:40.638Z,99147.44
2023-03-24T11:01:30.833Z,99149.81
2023-03-24T11:04:05.032Z,99160.50
2023-03-24T11:06:32.481Z,99161.78
2023-03-24T11:09:21.254Z,99175.47
2023-03-24T11:11:48.561Z,99177.78
2023-03-24T11:14:33.066Z,99168.53
2023-03-24T11:17:11.796Z,99169.66
2023-03-24T11:19:39.136Z,99172.78
2023-03-24T11:22:07.378Z,99169.94
2023-03-24T11:24:38.349Z,99159.22
2023-03-24T11:27:05.048Z,99163.50
2023-03-24T11:29:39.795Z,99154.59
2023-03-24T11:32:45.239Z,99155.22
2023-03-24T11:35:17.743Z,99151.44
2023-03-24T11:37:46.259Z,99145.53
2023-03-24T11:40:12.635Z,99160.09
2023-03-24T11:42:58.720Z,99137.25
2023-03-24T11:45:45.879Z,99149.00
2023-03-24T11:48:45.646Z,99142.19
2023-03-24T11:51:19.293Z,99133.19
2023-03-24T11:53:50.897Z,99142.06
2023-03-24T11:56:25.602Z,99137.97
2023-03-24T11:59:03.784Z,99144.75
2023-03-24T12:01:38.800Z,99139.66
2023-03-24T12:04:28.777Z,99137.75
2023-03-24T12:07:30.728Z,99133.53
2023-03-24T12:10:11.159Z,99133.13
2023-03-24T12:12:56.453Z,99126.56
2023-03-24T12:15:47.850Z,99137.63
2023-03-24T12:18:37.755Z,99126.13
2023-03-24T12:21:24.220Z,99141.06
2023-03-24T12:24:39.494Z,99157.72
2023-03-24T12:27:15.683Z,99150.94
2023-03-24T12:29:54.006Z,99166.81
2023-03-24T12:32:39.105Z,99149.66
2023-03-24T12:35:47.079Z,99159.09
2023-03-24T12:38:52.528Z,99151.53
2023-03-24T12:41:30.864Z,99171.56
2023-03-24T12:44:31.168Z,99175.78
2023-03-24T12:47:30.135Z,99184.94
2023-03-24T12:50:16.943Z,99185.44
2023-03-24T12:53:14.021Z,99172.22
2023-03-24T12:55:53.411Z,99181.19
2023-03-24T12:58:38.654Z,99195.69
2023-03-24T13:01:29.789Z,99186.06
2023-03-24T13:04:08.902Z,99191.47
2023-03-24T13:06:48.442Z,99197.81
2023-03-24T13:09:36.637Z,99173.09
2023-03-24T13:12:10.310Z,99187.88
2023-03-24T13:14:49.485Z,99182.81
2023-03-24T13:17:43.802Z,99170.78
2023-03-24T13:20:34.664Z,99165.78
2023-03-24T13:23:14.120Z,99169.19
2023-03-24T13:25:53.728Z,99156.88
2023-03-24T13:28:32.955Z,99157.19
2023-03-24T13:31:02.303Z,99154.63
2023-03-24T13:33:32.386Z,99168.34
2023-03-24T13:36:27.499Z,99147.41
2023-03-24T13:38:57.897Z,99141.81
2023-03-24T13:41:31.238Z,99143.34
2023-03-24T13:44:39.031Z,99145.28
2023-03-24T13:47:11.846Z,99138.09
2023-03-24T13:49:40.626Z,99141.53
2023-03-24T13:52:23.543Z,99144.97
2023-03-24T13:54:58.084Z,99144.97
2023-03-24T13:57:25.250Z,99151.09
2023-03-24T14:00:08.651Z,99153.91
2023-03-24T14:02:43.030Z,99145.69
2023-03-24T14:05:30.147Z,99158.16
2023-03-24T14:08:05.889Z,99166.31
2023-03-24T14:10:48.063Z,99170.25
2023-03-24T14:13:14.505Z,99178.06
2023-03-24T14:15:58.300Z,99175.53
2023-03-24T14:18:25.200Z,99171.56
2023-03-24T14:20:58.320Z,99164.34
2023-03-24T14:23:48.161Z,99178.38
2023-03-24T14:26:20.750Z,99167.56
2023-03-24T14:28:52.841Z,99169.50
2023-03-24T14:31:29.076Z,99160.72
2023-03-24T14:34:02.264Z,99164.75
2023-03-24T14:36:42.121Z,99165.91
2023-03-24T14:39:33.122Z,99152.88
2023-03-24T14:41:59.660Z,99163.47
2023-03-24T14:44:44.752Z,99162.53
2023-03-24T14:47:15.457Z,99166.22
2023-03-24T14:49:45.214Z,99163.78
2023-03-24T14:52:20.826Z,99167.38
2023-03-24T14:54:57.810Z,99177.41
2023-03-24T14:57:44.627Z,99169.53
2023-03-24T15:00:22.599Z,99160.81
2023-03-24T15:03:17.857Z,99174.38
2023-03-24T15:05:44.513Z,99184.63
2023-03-24T15:08:18.896Z,99177.94
2023-03-24T15:10:56.577Z,99182.53
2023-03-24T15:13:37.291Z,99174.97
2023-03-24T15:16:17.628Z,99171.34
2023-03-24T15:21:47.065Z,99168.03
2023-03-24T15:24:22.826Z,99162.13
2023-03-24T15:26:54.462Z,99171.66
2023-03-24T15:29:21.141Z,99165.03
2023-03-24T15:31:49.059Z,99171.09
2023-03-24T15:34:37.538Z,99161.75
2023-03-24T15:37:06.135Z,99162.25
2023-03-24T15:39:36.265Z,99161.09
2023-03-24T15:42:08.405Z,99155.44
2023-03-24T15:44:39.410Z,99150.59
2023-03-24T15:47:16.936Z,99155.81
2023-03-24T15:49:54.892Z,99161.25
2023-03-24T15:52:29.017Z,99156.97
2023-03-24T15:54:59.480Z,99153.25
2023-03-24T15:57:26.887Z,99155.16
2023-03-24T15:59:59.530Z,99160.97
2023-03-24T16:02:33.092Z,99168.38
2023-03-24T16:07:34.455Z,99194.91
2023-03-24T16:10:06.489Z,99176.47
2023-03-24T16:12:36.698Z,99184.19
2023-03-24T16:15:05.657Z,99182.81
2023-03-24T16:17:33.232Z,99181.69
2023-03-24T16:20:00.073Z,99183.19
2023-03-24T16:22:26.605Z,99195.03
2023-03-24T16:24:53.377Z,99197.16
2023-03-24T16:27:19.861Z,99183.97
2023-03-24T16:29:46.382Z,99178.81
2023-03-24T16:32:12.834Z,99178.13
2023-03-24T16:34:39.387Z,99200.56
2023-03-24T16:37:06.022Z,99189.94
2023-03-24T16:39:32.605Z,99185.56
2023-03-24T16:41:59.125Z,99192.94
2023-03-24T16:44:27.596Z,99202.06
2023-03-24T16:46:55.431Z,99201.38
2023-03-24T16:49:23.606Z,99213.03
2023-03-24T16:51:52.535Z,99208.66
2023-03-24T16:54:19.991Z,99211.41
2023-03-24T16:56:46.555Z,99218.63
2023-03-24T16:59:15.460Z,99222.34
2023-03-24T17:01:45.857Z,99214.56
2023-03-24T17:04:19.374Z,99214.72
2023-03-24T17:06:50.747Z,99214.84
2023-03-24T17:09:17.348Z,99224.66
2023-03-24T17:11:48.389Z,99218.56
2023-03-24T17:14:16.677Z,99238.06
2023-03-24T17:16:45.365Z,99268.25
2023-03-24T17:19:14.220Z,99304.63
2023-03-24T17:21:45.760Z,99337.03
2023-03-24T17:24:13.614Z,99376.72
2023-03-24T17:26:43.807Z,99356.47
2023-03-24T17:29:12.693Z,99360.09
2023-03-24T17:31:39.971Z,99358.38
2023-03-24T17:34:20.804Z,99353.06
2023-03-24T17:36:50.297Z,99344.31
2023-03-24T17:39:21.461Z,99338.16
2023-03-24T17:41:48.383Z,99333.78
2023-03-24T17:44:15.094Z,99332.91
2023-03-24T17:46:41.577Z,99340.81
2023-03-24T17:49:08.526Z,99330.28
2023-03-24T17:51:38.591Z,99325.88
2023-03-24T17:54:05.653Z,99327.66
2023-03-24T17:56:32.464Z,99332.88
2023-03-24T17:58:59.113Z,99328.50
2023-03-24T18:01:30.278Z,99316.19
2023-03-24T18:03:57.584Z,99312.63
2023-03-24T18:06:24.347Z,99310.84
2023-03-24T18:08:52.199Z,99308.19
2023-03-24T18:11:19.029Z,99315.25
2023-03-24T18:13:45.569Z,99319.63
2023-03-24T18:16:20.819Z,99319.63
2023-03-24T18:18:52.268Z,99309.09
2023-03-24T18:21:19.715Z,99304.72
2023-03-24T18:23:47.360Z,99309.09
2023-03-24T18:26:16.379Z,99310.84
2023-03-24T18:28:45.598Z,99314.38
2023-03-24T18:31:18.831Z,99317.91
2023-03-24T18:33:50.340Z,99309.97
2023-03-24T18:36:26.266Z,99307.34
2023-03-24T18:38:58.450Z,99314.34
2023-03-24T18:41:27.106Z,99302.91
2023-03-24T18:43:58.784Z,99312.63
2023-03-24T18:46:26.492Z,99308.22
2023-03-24T18:48:53.627Z,99308.19
2023-03-24T18:51:21.348Z,99304.72
2023-03-24T18:53:49.593Z,99302.94
2023-03-24T18:56:16.846Z,99301.19
2023-03-24T18:58:44.217Z,99296.81
2023-03-24T19:01:13.517Z,99300.34
2023-03-24T19:03:43.131Z,99304.75
2023-03-24T19:06:12.563Z,99295.06
2023-03-24T19:08:44.595Z,99303.88
2023-03-24T19:11:13.258Z,99302.97
2023-03-24T19:13:41.049Z,99309.13
2023-03-24T19:16:09.168Z,99316.16
2023-03-24T19:18:36.960Z,99303.88
2023-03-24T19:21:04.637Z,99300.34
2023-03-24T19:23:31.526Z,99298.59
2023-03-24T19:25:58.261Z,99297.69
2023-03-24T19:28:27.203Z,99302.94
2023-03-24T19:30:53.777Z,99295.91
2023-03-24T19:33:20.529Z,99290.59
2023-03-24T19:35:48.821Z,99302.03
2023-03-24T19:38:17.072Z,99300.28
2023-03-24T19:40:44.961Z,99309.97
2023-03-24T19:43:11.740Z,99301.16
2023-03-24T19:45:42.777Z,99300.28
2023-03-24T19:48:10.677Z,99302.03
2023-03-24T19:50:38.657Z,99306.41
2023-03-24T19:53:07.394Z,99298.50
2023-03-24T19:55:33.976Z,99304.66
2023-03-24T19:58:00.492Z,99304.69
2023-03-24T20:00:27.194Z,99303.78
2023-03-24T20:02:54.358Z,99295.03
2023-03-24T20:05:21.368Z,99289.75
2023-03-24T20:07:48.075Z,99295.91
2023-03-24T20:10:14.614Z,99297.69
2023-03-24T20:12:41.532Z,99298.56
2023-03-24T20:15:08.651Z,99302.09
2023-03-24T20:17:37.628Z,99287.16
2023-03-24T20:20:07.557Z,99284.56
2023-03-24T20:22:34.816Z,99281.06
2023-03-24T20:25:01.285Z,99278.41
2023-03-24T20:27:27.750Z,99270.50
2023-03-24T20:29:54.578Z,99269.63
2023-03-24T20:32:21.439Z,99274.91
2023-03-24T20:34:47.915Z,99275.78
2023-03-24T20:37:15.541Z,99282.84
2023-03-24T20:39:43.542Z,99274.03
2023-03-24T20:42:11.390Z,99275.81
2023-03-24T20:44:37.970Z,99273.16
2023-03-24T20:47:04.726Z,99266.16
2023-03-24T20:49:32.520Z,99273.16
2023-03-24T20:51:59.035Z,99267.88
2023-03-24T20:54:25.605Z,99260.88
2023-03-24T20:56:52.548Z,99264.38
2023-03-24T20:59:19.559Z,99253.84
2023-03-24T21:01:48.609Z,99265.25
2023-03-24T21:04:16.661Z,99261.75
2023-03-24T21:06:43.976Z,99258.25
2023-03-24T21:09:10.878Z,99254.72
2023-03-24T21:11:37.809Z,99249.47
2023-03-24T21:14:04.477Z,99251.22
2023-03-24T21:16:33.996Z,99254.75
2023-03-24T21:19:03.673Z,99263.50
2023-03-24T21:21:31.889Z,99255.63
2023-03-24T21:23:58.564Z,99246.84
2023-03-24T21:26:25.442Z,99242.47
2023-03-24T21:28:55.181Z,99252.13
2023-03-24T21:31:27.513Z,99256.50
2023-03-24T21:33:55.800Z,99251.22
2023-03-24T21:36:24.507Z,99249.47
2023-03-24T21:38:51.738Z,99250.38
2023-03-24T21:41:19.784Z,99248.59
2023-03-24T21:43:46.924Z,99238.94
2023-03-24T21:46:20.740Z,99248.59
2023-03-24T21:48:52.259Z,99244.19
2023-03-24T21:51:24.493Z,99242.44
2023-03-24T21:53:52.405Z,99239.81
2023-03-24T21:56:20.290Z,99236.31
2023-03-24T21:58:49.136Z,99242.47
2023-03-24T22:01:15.941Z,99239.81
2023-03-24T22:03:42.461Z,99239.81
2023-03-24T22:06:11.841Z,99241.59
2023-03-24T22:08:39.160Z,99230.16
2023-03-24T22:11:06.292Z,99238.06
2023-03-24T22:13:33.786Z,99230.16
2023-03-24T22:16:03.699Z,99232.78
2023-03-24T22:18:32.596Z,99224.00
2023-03-24T22:21:06.866Z,99230.16
2023-03-24T22:23:37.899Z,99230.16
2023-03-24T22:26:10.299Z,99217.88
2023-03-24T22:28:37.624Z,99220.47
2023-03-24T22:31:12.970Z,99217.84
2023-03-24T22:33:40.674Z,99225.75
2023-03-24T22:36:07.892Z,99226.66
2023-03-24T22:38:35.364Z,99229.25
2023-03-24T22:41:10.000Z,99224.88
2023-03-24T22:43:39.342Z,99223.13
2023-03-24T22:46:06.581Z,99219.63
2023-03-24T22:48:33.192Z,99217.84
2023-03-24T22:50:59.651Z,99218.72
2023-03-24T22:53:26.203Z,99216.09
2023-03-24T22:55:53.308Z,99220.47
2023-03-24T22:58:20.405Z,99219.63
2023-03-24T23:00:48.861Z,99219.63
2023-03-24T23:03:15.678Z,99215.22
2023-03-24T23:05:43.786Z,99213.47
2023-03-24T23:08:11.763Z,99212.59
2023-03-24T23:10:39.990Z,99219.59
2023-03-24T23:13:07.005Z,99213.47
2023-03-24T23:15:33.602Z,99210.81
2023-03-24T23:18:00.302Z,99203.78
2023-03-24T23:20:28.024Z,99199.34
2023-03-24T23:22:54.769Z,99209.00
2023-03-24T23:25:21.462Z,99211.63
2023-03-24T23:27:48.281Z,99209.88
2023-03-24T23:30:16.037Z,99204.56
2023-03-24T23:32:44.078Z,99206.34
2023-03-24T23:35:11.603Z,99205.47
2023-03-24T23:37:39.476Z,99210.75
2023-03-24T23:40:14.668Z,99210.72
2023-03-24T23:42:44.261Z,99220.38
2023-03-24T23:45:14.316Z,99209.84
2023-03-24T23:47:47.281Z,99204.53
2023-03-24T23:50:17.022Z,99205.41
2023-03-24T23:52:46.148Z,99202.75
2023-03-24T23:55:15.077Z,99207.19
2023-03-24T23:57:42.616Z,99200.13
